createdAt,value
2022-10-24T04:00:12.761Z,998.94
2022-10-24T04:01:14.454Z,998.94
2022-10-24T04:02:14.362Z,998.95
2022-10-24T04:03:12.767Z,998.96
2022-10-24T04:04:14.337Z,998.89
2022-10-24T04:05:14.353Z,998.90
2022-10-24T04:06:13.711Z,998.89
2022-10-24T04:07:14.336Z,998.86
2022-10-24T04:08:14.364Z,998.81
2022-10-24T04:09:13.690Z,998.88
2022-10-24T04:10:14.348Z,998.90
2022-10-24T04:11:14.366Z,998.90
2022-10-24T04:12:14.357Z,998.89
2022-10-24T04:13:14.375Z,998.82
2022-10-24T04:14:14.345Z,998.84
2022-10-24T04:15:14.385Z,998.86
2022-10-24T04:16:14.385Z,998.86
2022-10-24T04:17:12.659Z,998.91
2022-10-24T04:18:14.381Z,998.89
2022-10-24T04:19:14.345Z,998.84
2022-10-24T04:20:14.368Z,998.90
2022-10-24T04:21:18.031Z,998.90
2022-10-24T04:22:12.667Z,998.90
2022-10-24T04:23:14.363Z,998.92
2022-10-24T04:24:14.348Z,998.95
2022-10-24T04:25:15.347Z,998.92
2022-10-24T04:26:14.355Z,998.98
2022-10-24T04:27:14.383Z,998.97
2022-10-24T04:28:12.626Z,998.97
2022-10-24T04:29:13.609Z,999.04
2022-10-24T04:30:16.554Z,998.98
2022-10-24T04:31:16.908Z,999.05
2022-10-24T04:32:14.420Z,999.00
2022-10-24T04:33:14.391Z,999.01
2022-10-24T04:34:14.363Z,998.98
2022-10-24T04:35:14.384Z,998.99
2022-10-24T04:36:14.354Z,998.98
2022-10-24T04:37:14.399Z,999.04
2022-10-24T04:38:14.385Z,999.03
2022-10-24T04:39:14.391Z,999.03
2022-10-24T04:40:14.368Z,999.02
2022-10-24T04:41:14.362Z,999.04
2022-10-24T04:42:14.400Z,999.03
2022-10-24T04:43:12.567Z,999.03
2022-10-24T04:44:12.555Z,998.98
2022-10-24T04:45:12.556Z,999.08
2022-10-24T04:46:12.566Z,999.06
2022-10-24T04:47:14.459Z,999.09
2022-10-24T04:48:14.398Z,999.02
2022-10-24T04:49:12.542Z,999.06
2022-10-24T04:50:14.413Z,999.04
2022-10-24T04:51:17.391Z,999.05
2022-10-24T04:52:14.393Z,999.10
2022-10-24T04:53:12.531Z,999.08
2022-10-24T04:54:14.421Z,999.07
2022-10-24T04:55:12.522Z,999.12
2022-10-24T04:56:14.381Z,999.11
2022-10-24T04:57:14.381Z,999.14
2022-10-24T04:58:12.510Z,999.05
2022-10-24T04:59:13.891Z,999.09
2022-10-24T05:00:14.387Z,999.04
2022-10-24T05:01:14.439Z,999.01
2022-10-24T05:02:14.424Z,999.04
2022-10-24T05:03:14.424Z,999.05
2022-10-24T05:04:14.490Z,999.08
2022-10-24T05:05:14.400Z,999.07
2022-10-24T05:06:14.434Z,999.11
2022-10-24T05:07:14.404Z,999.05
2022-10-24T05:08:14.397Z,999.08
2022-10-24T05:09:14.434Z,999.11
2022-10-24T05:10:14.517Z,999.09
2022-10-24T05:11:14.398Z,999.15
2022-10-24T05:12:14.430Z,999.14
2022-10-24T05:13:14.454Z,999.16
2022-10-24T05:14:14.429Z,999.17
2022-10-24T05:15:14.440Z,999.17
2022-10-24T05:16:14.400Z,999.16
2022-10-24T05:17:12.441Z,999.18
2022-10-24T05:18:14.442Z,999.18
2022-10-24T05:19:12.454Z,999.17
2022-10-24T05:20:12.460Z,999.15
2022-10-24T05:21:12.447Z,999.03
2022-10-24T05:22:14.429Z,999.09
2022-10-24T05:23:12.502Z,999.03
2022-10-24T05:24:12.441Z,999.01
2022-10-24T05:25:14.444Z,999.03
2022-10-24T05:26:13.937Z,999.02
2022-10-24T05:27:12.406Z,999.04
2022-10-24T05:28:12.430Z,999.07
2022-10-24T05:29:12.438Z,999.05
2022-10-24T05:30:12.401Z,999.14
2022-10-24T05:31:13.921Z,999.07
2022-10-24T05:32:12.397Z,999.03
2022-10-24T05:33:13.909Z,999.06
2022-10-24T05:34:12.399Z,999.09
2022-10-24T05:35:13.909Z,999.08
2022-10-24T05:36:13.465Z,999.09
2022-10-24T05:37:12.393Z,999.06
2022-10-24T05:38:13.922Z,999.07
2022-10-24T05:39:12.375Z,999.06
2022-10-24T05:40:13.928Z,999.05
2022-10-24T05:41:12.363Z,999.01
2022-10-24T05:42:12.363Z,999.03
2022-10-24T05:43:13.927Z,999.01
2022-10-24T05:44:13.923Z,999.03
2022-10-24T05:45:13.932Z,999.04
2022-10-24T05:46:13.928Z,999.06
2022-10-24T05:47:13.923Z,999.03
2022-10-24T05:48:13.923Z,998.98
2022-10-24T05:49:13.941Z,999.05
2022-10-24T05:50:13.933Z,998.99
2022-10-24T05:51:13.956Z,999.02
2022-10-24T05:52:13.936Z,999.01
2022-10-24T05:53:13.939Z,998.99
2022-10-24T05:55:16.983Z,999.03
2022-10-24T05:56:12.320Z,998.99
2022-10-24T05:57:13.926Z,998.99
2022-10-24T05:58:13.954Z,998.98
2022-10-24T05:59:13.945Z,998.98
2022-10-24T06:00:13.953Z,999.00
2022-10-24T06:01:13.507Z,998.95
2022-10-24T06:02:12.344Z,998.96
2022-10-24T06:03:13.953Z,998.96
2022-10-24T06:04:14.077Z,998.93
2022-10-24T06:05:13.954Z,998.94
2022-10-24T06:06:13.947Z,998.95
2022-10-24T06:07:13.937Z,998.95
2022-10-24T06:08:13.960Z,998.94
2022-10-24T06:09:13.942Z,998.98
2022-10-24T06:10:13.944Z,998.99
2022-10-24T06:11:14.024Z,998.99
2022-10-24T06:12:13.946Z,998.97
2022-10-24T06:13:13.948Z,998.99
2022-10-24T06:14:13.968Z,998.94
2022-10-24T06:15:13.966Z,998.99
2022-10-24T06:16:13.980Z,998.97
2022-10-24T06:17:13.981Z,998.99
2022-10-24T06:18:13.985Z,999.04
2022-10-24T06:19:12.295Z,999.01
2022-10-24T06:20:13.973Z,999.07
2022-10-24T06:21:13.947Z,999.17
2022-10-24T06:22:12.268Z,999.15
2022-10-24T06:23:13.990Z,999.11
2022-10-24T06:24:12.266Z,999.23
2022-10-24T06:25:12.222Z,999.19
2022-10-24T06:26:12.222Z,999.14
2022-10-24T06:27:13.983Z,999.17
2022-10-24T06:28:12.267Z,999.17
2022-10-24T06:29:12.247Z,999.21
2022-10-24T06:30:12.217Z,999.21
2022-10-24T06:31:12.230Z,999.24
2022-10-24T06:32:13.969Z,999.21
2022-10-24T06:33:12.188Z,999.22
2022-10-24T06:34:12.220Z,999.25
2022-10-24T06:35:13.976Z,999.27
2022-10-24T06:36:13.963Z,999.29
2022-10-24T06:37:13.981Z,999.31
2022-10-24T06:38:13.958Z,999.32
2022-10-24T06:39:13.994Z,999.39
2022-10-24T06:40:13.965Z,999.41
2022-10-24T06:41:13.958Z,999.38
2022-10-24T06:42:12.194Z,999.38
2022-10-24T06:43:13.972Z,999.41
2022-10-24T06:44:13.999Z,999.42
2022-10-24T06:45:14.994Z,999.41
2022-10-24T06:46:13.978Z,999.46
2022-10-24T06:47:13.976Z,999.43
2022-10-24T06:48:12.147Z,999.41
2022-10-24T06:49:12.143Z,999.44
2022-10-24T06:50:13.988Z,999.49
2022-10-24T06:51:13.154Z,999.48
2022-10-24T06:52:12.147Z,999.49
2022-10-24T06:53:12.175Z,999.54
2022-10-24T06:55:14.014Z,999.52
2022-10-24T06:56:12.140Z,999.54
2022-10-24T06:57:12.991Z,999.52
2022-10-24T06:58:12.127Z,999.57
2022-10-24T06:59:12.108Z,999.55
2022-10-24T07:00:14.064Z,999.56
2022-10-24T07:01:12.317Z,999.55
2022-10-24T07:02:12.192Z,999.52
2022-10-24T07:03:14.004Z,999.62
2022-10-24T07:04:12.102Z,999.59
2022-10-24T07:05:12.136Z,999.65
2022-10-24T07:06:14.038Z,999.67
2022-10-24T07:07:12.084Z,999.72
2022-10-24T07:08:14.005Z,999.73
2022-10-24T07:09:15.104Z,999.72
2022-10-24T07:10:14.007Z,999.73
2022-10-24T07:11:12.079Z,999.74
2022-10-24T07:12:14.080Z,999.75
2022-10-24T07:13:13.085Z,999.83
2022-10-24T07:14:14.033Z,999.79
2022-10-24T07:15:12.055Z,999.73
2022-10-24T07:16:14.008Z,999.82
2022-10-24T07:17:14.014Z,999.77
2022-10-24T07:18:14.001Z,999.82
2022-10-24T07:19:14.005Z,999.83
2022-10-24T07:20:14.033Z,999.83
2022-10-24T07:21:13.998Z,999.87
2022-10-24T07:22:14.000Z,999.85
2022-10-24T07:23:14.044Z,999.83
2022-10-24T07:24:13.997Z,999.87
2022-10-24T07:25:14.078Z,999.84
2022-10-24T07:26:13.025Z,999.87
2022-10-24T07:27:12.034Z,999.80
2022-10-24T07:28:13.524Z,999.84
2022-10-24T07:29:14.014Z,999.81
2022-10-24T07:30:13.528Z,999.86
2022-10-24T07:31:12.009Z,999.85
2022-10-24T07:32:13.550Z,999.86
2022-10-24T07:33:12.002Z,999.85
2022-10-24T07:34:13.008Z,999.87
2022-10-24T07:35:13.526Z,999.86
2022-10-24T07:36:14.040Z,999.80
2022-10-24T07:37:13.620Z,999.87
2022-10-24T07:38:16.436Z,999.86
2022-10-24T07:39:13.556Z,999.78
2022-10-24T07:40:13.516Z,999.79
2022-10-24T07:41:13.536Z,999.78
2022-10-24T07:42:13.526Z,999.79
2022-10-24T07:43:13.536Z,999.82
2022-10-24T07:44:13.541Z,999.81
2022-10-24T07:45:13.529Z,999.81
2022-10-24T07:46:13.548Z,999.86
2022-10-24T07:47:13.515Z,999.86
2022-10-24T07:48:14.546Z,999.80
2022-10-24T07:49:13.630Z,999.78
2022-10-24T07:50:13.623Z,999.81
2022-10-24T07:51:13.529Z,999.83
2022-10-24T07:52:13.556Z,999.74
2022-10-24T07:53:13.546Z,999.79
2022-10-24T07:54:13.583Z,999.84
2022-10-24T07:55:13.540Z,999.81
2022-10-24T07:56:13.540Z,999.82
2022-10-24T07:57:13.528Z,999.83
2022-10-24T07:58:11.930Z,999.78
2022-10-24T07:59:29.760Z,999.79
2022-10-24T08:00:11.930Z,999.77
2022-10-24T08:01:11.964Z,999.81
2022-10-24T08:02:13.049Z,999.83
2022-10-24T08:03:11.917Z,999.88
2022-10-24T08:04:11.922Z,999.84
2022-10-24T08:05:11.918Z,999.84
2022-10-24T08:06:13.073Z,999.92
2022-10-24T08:07:13.907Z,999.81
2022-10-24T08:08:30.734Z,999.83
2022-10-24T08:09:13.542Z,999.77
2022-10-24T08:10:13.542Z,999.76
2022-10-24T08:11:11.909Z,999.80
2022-10-24T08:12:13.548Z,999.68
2022-10-24T08:13:13.723Z,999.74
2022-10-24T08:14:13.542Z,999.75
2022-10-24T08:15:13.567Z,999.70
2022-10-24T08:16:13.563Z,999.69
2022-10-24T08:17:13.547Z,999.66
2022-10-24T08:18:13.576Z,999.63
2022-10-24T08:19:13.614Z,999.59
2022-10-24T08:20:13.551Z,999.61
2022-10-24T08:21:13.572Z,999.62
2022-10-24T08:22:11.878Z,999.55
2022-10-24T08:23:13.551Z,999.66
2022-10-24T08:24:11.857Z,999.64
2022-10-24T08:25:13.570Z,999.67
2022-10-24T08:26:13.561Z,999.70
2022-10-24T08:27:13.570Z,999.61
2022-10-24T08:28:13.565Z,999.63
2022-10-24T08:29:13.574Z,999.61
2022-10-24T08:30:13.608Z,999.72
2022-10-24T08:31:13.597Z,999.62
2022-10-24T08:32:13.556Z,999.54
2022-10-24T08:33:18.660Z,999.60
2022-10-24T08:34:11.837Z,999.65
2022-10-24T08:35:11.833Z,999.71
2022-10-24T08:36:11.847Z,999.62
2022-10-24T08:37:13.581Z,999.62
2022-10-24T08:38:13.617Z,999.63
2022-10-24T08:39:13.589Z,999.62
2022-10-24T08:40:11.823Z,999.66
2022-10-24T08:41:13.599Z,999.58
2022-10-24T08:42:11.857Z,999.67
2022-10-24T08:43:13.583Z,999.60
2022-10-24T08:44:11.829Z,999.66
2022-10-24T08:45:13.615Z,999.65
2022-10-24T08:46:13.584Z,999.66
2022-10-24T08:47:13.598Z,999.62
2022-10-24T08:48:13.573Z,999.60
2022-10-24T08:49:13.571Z,999.58
2022-10-24T08:50:13.596Z,999.58
2022-10-24T08:51:13.597Z,999.66
2022-10-24T08:52:13.612Z,999.64
2022-10-24T08:53:13.592Z,999.66
2022-10-24T08:54:13.577Z,999.72
2022-10-24T08:55:25.115Z,999.53
2022-10-24T08:56:13.604Z,999.59
2022-10-24T08:57:11.828Z,999.53
2022-10-24T08:58:11.820Z,999.55
2022-10-24T08:59:11.786Z,999.61
2022-10-24T09:00:11.809Z,999.60
2022-10-24T09:01:13.739Z,999.55
2022-10-24T09:02:13.757Z,999.57
2022-10-24T09:03:11.789Z,999.60
2022-10-24T09:04:11.780Z,999.59
2022-10-24T09:05:11.802Z,999.65
2022-10-24T09:06:13.665Z,999.70
2022-10-24T09:07:11.799Z,999.66
2022-10-24T09:08:11.785Z,999.62
2022-10-24T09:09:13.597Z,999.64
2022-10-24T09:10:13.615Z,999.65
2022-10-24T09:11:12.788Z,999.67
2022-10-24T09:12:13.603Z,999.67
2022-10-24T09:13:13.613Z,999.66
2022-10-24T09:14:13.648Z,999.67
2022-10-24T09:15:13.593Z,999.59
2022-10-24T09:16:13.665Z,999.67
2022-10-24T09:17:13.685Z,999.65
2022-10-24T09:18:13.600Z,999.71
2022-10-24T09:19:13.609Z,999.75
2022-10-24T09:20:13.607Z,999.73
2022-10-24T09:21:13.625Z,999.81
2022-10-24T09:22:13.613Z,999.70
2022-10-24T09:23:13.598Z,999.77
2022-10-24T09:24:13.614Z,999.75
2022-10-24T09:25:13.621Z,999.75
2022-10-24T09:26:13.607Z,999.72
2022-10-24T09:27:13.640Z,999.80
2022-10-24T09:28:13.608Z,999.75
2022-10-24T09:29:13.621Z,999.76
2022-10-24T09:30:13.644Z,999.78
2022-10-24T09:31:12.763Z,999.78
2022-10-24T09:32:13.653Z,999.81
2022-10-24T09:33:11.764Z,999.79
2022-10-24T09:34:11.748Z,999.84
2022-10-24T09:35:13.664Z,999.87
2022-10-24T09:36:11.759Z,999.85
2022-10-24T09:37:13.671Z,999.93
2022-10-24T09:38:11.743Z,999.93
2022-10-24T09:39:11.824Z,999.93
2022-10-24T09:40:11.758Z,999.93
2022-10-24T09:41:11.741Z,999.97
2022-10-24T09:42:13.639Z,999.95
2022-10-24T09:43:13.629Z,999.99
2022-10-24T09:44:13.678Z,999.91
2022-10-24T09:45:11.741Z,999.98
2022-10-24T09:46:13.654Z,1000.01
2022-10-24T09:47:13.659Z,1000.04
2022-10-24T09:48:13.645Z,1000.06
2022-10-24T09:49:13.632Z,999.96
2022-10-24T09:50:13.652Z,1000.04
2022-10-24T09:51:13.660Z,1000.04
2022-10-24T09:52:13.645Z,1000.09
2022-10-24T09:53:13.666Z,1000.10
2022-10-24T09:54:13.673Z,1000.07
2022-10-24T09:55:13.656Z,1000.05
2022-10-24T09:56:13.663Z,1000.12
2022-10-24T09:58:13.747Z,1000.06
2022-10-24T09:59:13.654Z,1000.10
2022-10-24T10:00:13.664Z,1000.18
2022-10-24T10:01:13.765Z,1000.11
2022-10-24T10:02:13.721Z,1000.20
2022-10-24T10:13:26.244Z,1000.18
2022-10-24T10:14:26.202Z,1000.20
2022-10-24T10:15:26.206Z,1000.22
2022-10-24T10:16:26.198Z,1000.14
2022-10-24T10:17:26.208Z,1000.21
2022-10-24T10:18:26.218Z,1000.24
2022-10-24T10:19:26.200Z,1000.23
2022-10-24T10:20:26.205Z,1000.29
2022-10-24T10:21:24.611Z,1000.27
2022-10-24T10:22:24.601Z,1000.26
2022-10-24T10:23:25.722Z,1000.29
2022-10-24T10:24:26.218Z,1000.24
2022-10-24T10:25:26.212Z,1000.23
2022-10-24T10:26:26.227Z,1000.27
2022-10-24T10:27:26.206Z,1000.31
2022-10-24T10:28:26.211Z,1000.36
2022-10-24T10:29:26.230Z,1000.26
2022-10-24T10:30:26.232Z,1000.32
2022-10-24T10:31:26.257Z,1000.30
2022-10-24T10:32:26.214Z,1000.26
2022-10-24T10:33:26.296Z,1000.33
2022-10-24T10:34:26.219Z,1000.28
2022-10-24T10:35:26.255Z,1000.31
2022-10-24T10:36:26.218Z,1000.31
2022-10-24T10:37:26.259Z,1000.30
2022-10-24T10:38:26.219Z,1000.39
2022-10-24T10:39:26.220Z,1000.33
2022-10-24T10:40:26.254Z,1000.30
2022-10-24T10:41:26.235Z,1000.29
2022-10-24T10:42:24.570Z,1000.26
2022-10-24T10:43:24.569Z,1000.29
2022-10-24T10:44:26.253Z,1000.41
2022-10-24T10:45:24.595Z,1000.26
2022-10-24T10:46:24.576Z,1000.29
2022-10-24T10:47:26.772Z,1000.24
2022-10-24T10:48:26.249Z,1000.25
2022-10-24T10:49:24.575Z,1000.31
2022-10-24T10:50:24.577Z,1000.26
2022-10-24T10:51:24.566Z,1000.08
2022-10-24T10:52:24.583Z,1000.20
2022-10-24T10:53:25.749Z,1000.12
2022-10-24T10:54:26.278Z,1000.21
2022-10-24T10:55:24.558Z,1000.21
2022-10-24T10:56:26.235Z,1000.18
2022-10-24T10:57:29.034Z,1000.17
2022-10-24T10:58:26.324Z,1000.17
2022-10-24T10:59:29.252Z,1000.07
2022-10-24T11:00:26.255Z,1000.09
2022-10-24T11:01:26.484Z,1000.13
2022-10-24T11:02:26.425Z,1000.20
2022-10-24T11:03:26.275Z,1000.15
2022-10-24T11:04:26.263Z,1000.16
2022-10-24T11:05:26.243Z,1000.25
2022-10-24T11:06:26.268Z,1000.21
2022-10-24T11:07:26.278Z,1000.25
2022-10-24T11:08:26.246Z,1000.28
2022-10-24T11:09:26.247Z,1000.31
2022-10-24T11:10:26.247Z,1000.29
2022-10-24T11:11:26.275Z,1000.31
2022-10-24T11:12:26.251Z,1000.31
2022-10-24T11:13:26.263Z,1000.40
2022-10-24T11:14:26.280Z,1000.28
2022-10-24T11:15:26.255Z,1000.35
2022-10-24T11:16:26.261Z,1000.34
2022-10-24T11:17:26.273Z,1000.35
2022-10-24T11:18:26.269Z,1000.39
2022-10-24T11:19:26.263Z,1000.36
2022-10-24T11:20:26.266Z,1000.31
2022-10-24T11:21:26.271Z,1000.32
2022-10-24T11:22:26.269Z,1000.41
2022-10-24T11:23:26.301Z,1000.34
2022-10-24T11:24:26.282Z,1000.37
2022-10-24T11:25:26.268Z,1000.37
2022-10-24T11:26:24.899Z,1000.33
2022-10-24T11:27:26.279Z,1000.41
2022-10-24T11:28:24.540Z,1000.44
2022-10-24T11:29:24.538Z,1000.44
2022-10-24T11:30:24.569Z,1000.47
2022-10-24T11:31:26.284Z,1000.55
2022-10-24T11:32:24.531Z,1000.53
2022-10-24T11:33:24.563Z,1000.53
2022-10-24T11:34:26.288Z,1000.52
2022-10-24T11:35:26.296Z,1000.42
2022-10-24T11:36:25.546Z,1000.58
2022-10-24T11:37:26.285Z,1000.56
2022-10-24T11:38:24.532Z,1000.56
2022-10-24T11:39:26.318Z,1000.62
2022-10-24T11:40:26.363Z,1000.59
2022-10-24T11:41:26.289Z,1000.57
2022-10-24T11:42:26.281Z,1000.59
2022-10-24T11:43:26.292Z,1000.59
2022-10-24T11:44:26.288Z,1000.63
2022-10-24T11:45:26.290Z,1000.65
2022-10-24T11:46:26.307Z,1000.57
2022-10-24T11:47:26.294Z,1000.61
2022-10-24T11:48:26.294Z,1000.62
2022-10-24T11:49:26.335Z,1000.61
2022-10-24T11:50:26.298Z,1000.64
2022-10-24T11:51:26.284Z,1000.59
2022-10-24T11:52:24.522Z,1000.61
2022-10-24T11:53:26.301Z,1000.53
2022-10-24T11:54:24.538Z,1000.63
2022-10-24T11:55:24.549Z,1000.62
2022-10-24T11:56:27.159Z,1000.67
2022-10-24T11:57:26.302Z,1000.69
2022-10-24T11:58:26.311Z,1000.55
2022-10-24T11:59:26.314Z,1000.64
2022-10-24T12:00:26.375Z,1000.65
2022-10-24T12:01:26.374Z,1000.61
2022-10-24T12:02:26.401Z,1000.66
2022-10-24T12:03:26.300Z,1000.73
2022-10-24T12:04:26.325Z,1000.70
2022-10-24T12:05:26.428Z,1000.68
2022-10-24T12:06:29.831Z,1000.70
2022-10-24T12:07:26.315Z,1000.72
2022-10-24T12:08:26.300Z,1000.71
2022-10-24T12:09:26.429Z,1000.67
2022-10-24T12:10:26.309Z,1000.69
2022-10-24T12:11:24.525Z,1000.69
2022-10-24T12:12:26.325Z,1000.72
2022-10-24T12:13:26.309Z,1000.69
2022-10-24T12:14:26.309Z,1000.73
2022-10-24T12:15:26.322Z,1000.71
2022-10-24T12:16:26.342Z,1000.75
2022-10-24T12:17:26.325Z,1000.76
2022-10-24T12:18:26.325Z,1000.70
2022-10-24T12:19:26.315Z,1000.68
2022-10-24T12:20:26.314Z,1000.72
2022-10-24T12:21:26.303Z,1000.70
2022-10-24T12:22:24.502Z,1000.71
2022-10-24T12:23:24.510Z,1000.73
2022-10-24T12:24:26.332Z,1000.76
2022-10-24T12:25:24.493Z,1000.80
2022-10-24T12:26:24.506Z,1000.74
2022-10-24T12:27:24.495Z,1000.79
2022-10-24T12:28:26.327Z,1000.74
2022-10-24T12:29:25.833Z,1000.80
2022-10-24T12:30:26.320Z,1000.81
2022-10-24T12:31:26.535Z,1000.84
2022-10-24T12:32:26.331Z,1000.87
2022-10-24T12:33:26.330Z,1000.81
2022-10-24T12:34:26.339Z,1000.80
2022-10-24T12:35:30.309Z,1000.76
2022-10-24T12:36:26.353Z,1000.83
2022-10-24T12:37:26.357Z,1000.68
2022-10-24T12:38:26.340Z,1000.79
2022-10-24T12:40:26.351Z,1000.78
2022-10-24T12:41:26.381Z,1000.79
2022-10-24T12:42:26.336Z,1000.76
2022-10-24T12:43:26.350Z,1000.74
2022-10-24T12:44:26.353Z,1000.73
2022-10-24T12:45:24.497Z,1000.72
2022-10-24T12:46:26.468Z,1000.78
2022-10-24T12:47:24.494Z,1000.76
2022-10-24T12:48:24.495Z,1000.77
2022-10-24T12:49:26.314Z,1000.78
2022-10-24T12:50:24.500Z,1000.77
2022-10-24T12:51:26.362Z,1000.78
2022-10-24T12:52:24.502Z,1000.78
2022-10-24T12:53:24.520Z,1000.73
2022-10-24T12:54:26.366Z,1000.76
2022-10-24T12:55:24.497Z,1000.73
2022-10-24T12:56:24.506Z,1000.73
2022-10-24T12:57:24.524Z,1000.72
2022-10-24T12:58:25.871Z,1000.73
2022-10-24T12:59:24.499Z,1000.72
2022-10-24T13:00:26.376Z,1000.70
2022-10-24T13:01:24.652Z,1000.66
2022-10-24T13:02:24.689Z,1000.74
2022-10-24T13:03:24.496Z,1000.72
2022-10-24T13:04:26.396Z,1000.78
2022-10-24T13:05:24.491Z,1000.77
2022-10-24T13:06:26.356Z,1000.81
2022-10-24T13:07:24.496Z,1000.78
2022-10-24T13:08:26.374Z,1000.75
2022-10-24T13:09:24.525Z,1000.73
2022-10-24T13:10:26.381Z,1000.73
2022-10-24T13:11:24.497Z,1000.77
2022-10-24T13:12:26.381Z,1000.74
2022-10-24T13:13:25.495Z,1000.77
2022-10-24T13:14:26.402Z,1000.70
2022-10-24T13:15:26.365Z,1000.78
2022-10-24T13:16:25.492Z,1000.72
2022-10-24T13:17:26.387Z,1000.75
2022-10-24T13:18:24.493Z,1000.77
2022-10-24T13:19:26.392Z,1000.76
2022-10-24T13:20:25.497Z,1000.75
2022-10-24T13:21:26.447Z,1000.78
2022-10-24T13:22:26.456Z,1000.77
2022-10-24T13:23:25.520Z,1000.70
2022-10-24T13:24:26.394Z,1000.74
2022-10-24T13:25:24.494Z,1000.67
2022-10-24T13:26:24.501Z,1000.76
2022-10-24T13:27:24.485Z,1000.73
2022-10-24T13:28:24.512Z,1000.78
2022-10-24T13:29:26.400Z,1000.73
2022-10-24T13:30:25.495Z,1000.79
2022-10-24T13:31:25.496Z,1000.76
2022-10-24T13:32:26.413Z,1000.77
2022-10-24T13:33:26.412Z,1000.75
2022-10-24T13:34:26.392Z,1000.78
2022-10-24T13:35:26.440Z,1000.80
2022-10-24T13:36:28.546Z,1000.71
2022-10-24T13:37:26.397Z,1000.75
2022-10-24T13:38:26.569Z,1000.76
2022-10-24T13:39:26.405Z,1000.77
2022-10-24T13:40:26.429Z,1000.76
2022-10-24T13:41:26.393Z,1000.74
2022-10-24T13:42:26.402Z,1000.80
2022-10-24T13:43:25.913Z,1000.80
2022-10-24T13:44:26.423Z,1000.81
2022-10-24T13:45:24.485Z,1000.84
2022-10-24T13:46:26.409Z,1000.86
2022-10-24T13:47:26.411Z,1000.85
2022-10-24T13:48:26.399Z,1000.83
2022-10-24T13:49:25.922Z,1000.82
2022-10-24T13:50:24.459Z,1000.83
2022-10-24T13:51:26.437Z,1000.86
2022-10-24T13:52:24.448Z,1000.85
2022-10-24T13:53:30.373Z,1000.89
2022-10-24T13:54:24.454Z,1000.88
2022-10-24T13:55:24.471Z,1000.82
2022-10-24T13:56:25.931Z,1000.84
2022-10-24T13:57:26.429Z,1000.88
2022-10-24T13:58:26.426Z,1000.77
2022-10-24T13:59:24.446Z,1000.81
2022-10-24T14:00:26.437Z,1000.80
2022-10-24T14:01:24.562Z,1000.77
2022-10-24T14:02:27.275Z,1000.79
2022-10-24T14:03:24.495Z,1000.84
2022-10-24T14:04:26.475Z,1000.87
2022-10-24T14:05:26.424Z,1000.83
2022-10-24T14:06:26.484Z,1000.88
2022-10-24T14:07:26.412Z,1000.84
2022-10-24T14:08:25.456Z,1000.80
2022-10-24T14:09:26.425Z,1000.82
2022-10-24T14:10:26.428Z,1000.85
2022-10-24T14:11:25.976Z,1000.93
2022-10-24T14:12:25.940Z,1000.95
2022-10-24T14:13:25.930Z,1000.92
2022-10-24T14:14:25.945Z,1000.95
2022-10-24T14:15:25.935Z,1000.95
2022-10-24T14:16:25.938Z,1000.95
2022-10-24T14:17:25.936Z,1000.97
2022-10-24T14:18:25.932Z,1000.97
2022-10-24T14:19:27.051Z,1000.98
2022-10-24T14:20:24.443Z,1000.96
2022-10-24T14:21:25.953Z,1000.95
2022-10-24T14:22:24.430Z,1000.88
2022-10-24T14:23:25.461Z,1000.97
2022-10-24T14:24:24.429Z,1000.89
2022-10-24T14:25:24.547Z,1000.90
2022-10-24T14:26:24.478Z,1000.87
2022-10-24T14:27:24.428Z,1000.93
2022-10-24T14:28:25.992Z,1000.91
2022-10-24T14:29:24.412Z,1000.88
2022-10-24T14:30:24.424Z,1000.89
2022-10-24T14:31:25.975Z,1000.92
2022-10-24T14:32:25.966Z,1000.91
2022-10-24T14:33:24.417Z,1000.92
2022-10-24T14:34:24.430Z,1000.99
2022-10-24T14:35:24.438Z,1001.03
2022-10-24T14:36:24.404Z,1001.02
2022-10-24T14:37:25.995Z,1001.04
2022-10-24T14:38:24.411Z,1001.11
2022-10-24T14:39:25.945Z,1001.20
2022-10-24T14:40:25.970Z,1001.17
2022-10-24T14:41:28.942Z,1001.12
2022-10-24T14:42:27.918Z,1001.22
2022-10-24T14:43:25.405Z,1001.31
2022-10-24T14:44:25.965Z,1001.32
2022-10-24T14:45:25.969Z,1001.36
2022-10-24T14:46:26.283Z,1001.41
2022-10-24T14:47:25.956Z,1001.44
2022-10-24T14:48:25.976Z,1001.49
2022-10-24T14:49:25.956Z,1001.56
2022-10-24T14:50:25.982Z,1001.62
2022-10-24T14:51:25.982Z,1001.64
2022-10-24T14:52:25.960Z,1001.62
2022-10-24T14:53:25.971Z,1001.58
2022-10-24T14:54:25.963Z,1001.54
2022-10-24T14:55:25.987Z,1001.53
2022-10-24T14:56:25.963Z,1001.54
2022-10-24T14:57:25.977Z,1001.44
2022-10-24T14:58:24.370Z,1001.47
2022-10-24T14:59:24.364Z,1001.50
2022-10-24T15:00:26.022Z,1001.49
2022-10-24T15:01:26.051Z,1001.49
2022-10-24T15:02:24.367Z,1001.51
2022-10-24T15:03:24.361Z,1001.51
2022-10-24T15:04:24.360Z,1001.49
2022-10-24T15:05:24.354Z,1001.57
2022-10-24T15:06:26.010Z,1001.52
2022-10-24T15:07:25.973Z,1001.50
2022-10-24T15:08:25.501Z,1001.52
2022-10-24T15:09:24.372Z,1001.56
2022-10-24T15:10:25.974Z,1001.55
2022-10-24T15:11:25.991Z,1001.56
2022-10-24T15:12:25.993Z,1001.62
2022-10-24T15:13:25.978Z,1001.65
2022-10-24T15:14:25.980Z,1001.62
2022-10-24T15:15:27.675Z,1001.62
2022-10-24T15:16:26.015Z,1001.63
2022-10-24T15:17:28.442Z,1001.61
2022-10-24T15:18:25.983Z,1001.66
2022-10-24T15:19:25.995Z,1001.62
2022-10-24T15:20:25.984Z,1001.65
2022-10-24T15:21:25.996Z,1001.66
2022-10-24T15:22:25.989Z,1001.62
2022-10-24T15:23:26.013Z,1001.63
2022-10-24T15:24:26.003Z,1001.67
2022-10-24T15:25:24.340Z,1001.65
2022-10-24T15:26:24.317Z,1001.61
2022-10-24T15:27:26.035Z,1001.68
2022-10-24T15:28:24.310Z,1001.69
2022-10-24T15:29:24.321Z,1001.70
2022-10-24T15:30:26.007Z,1001.64
2022-10-24T15:31:24.334Z,1001.66
2022-10-24T15:32:24.322Z,1001.71
2022-10-24T15:33:24.301Z,1001.70
2022-10-24T15:34:26.044Z,1001.71
2022-10-24T15:35:24.286Z,1001.72
2022-10-24T15:36:24.291Z,1001.71
2022-10-24T15:37:26.016Z,1001.80
2022-10-24T15:38:25.297Z,1001.75
2022-10-24T15:39:26.038Z,1001.79
2022-10-24T15:40:24.284Z,1001.74
2022-10-24T15:41:26.032Z,1001.75
2022-10-24T15:42:26.010Z,1001.74
2022-10-24T15:43:26.006Z,1001.74
2022-10-24T15:44:26.022Z,1001.71
2022-10-24T15:45:24.266Z,1001.69
2022-10-24T15:46:26.026Z,1001.70
2022-10-24T15:47:24.267Z,1001.71
2022-10-24T15:48:26.030Z,1001.71
2022-10-24T15:49:26.028Z,1001.72
2022-10-24T15:50:26.054Z,1001.73
2022-10-24T15:51:26.042Z,1001.74
2022-10-24T15:52:26.046Z,1001.75
2022-10-24T15:53:26.031Z,1001.72
2022-10-24T15:54:26.013Z,1001.73
2022-10-24T15:55:26.021Z,1001.77
2022-10-24T15:56:26.013Z,1001.80
2022-10-24T15:57:26.027Z,1001.76
2022-10-24T15:58:26.020Z,1001.71
2022-10-24T15:59:26.016Z,1001.79
2022-10-24T16:00:24.218Z,1001.78
2022-10-24T16:01:26.158Z,1001.79
2022-10-24T16:12:40.533Z,1001.79
2022-10-24T16:13:39.898Z,1001.76
2022-10-24T16:14:40.491Z,1001.70
2022-10-24T16:15:38.890Z,1001.79
2022-10-24T16:16:38.883Z,1001.81
2022-10-24T16:17:40.531Z,1001.85
2022-10-24T16:18:40.497Z,1001.87
2022-10-24T16:19:40.489Z,1001.93
2022-10-24T16:20:40.499Z,1001.92
2022-10-24T16:21:40.496Z,1001.91
2022-10-24T16:22:40.563Z,1001.91
2022-10-24T16:23:40.604Z,1001.96
2022-10-24T16:24:40.499Z,1001.95
2022-10-24T16:25:40.515Z,1002.02
2022-10-24T16:26:40.506Z,1001.99
2022-10-24T16:27:40.500Z,1001.98
2022-10-24T16:28:40.045Z,1002.00
2022-10-24T16:29:38.829Z,1001.98
2022-10-24T16:30:38.868Z,1002.01
2022-10-24T16:31:38.834Z,1002.04
2022-10-24T16:32:38.836Z,1002.06
2022-10-24T16:33:40.023Z,1002.06
2022-10-24T16:34:38.813Z,1002.03
2022-10-24T16:35:38.808Z,1002.09
2022-10-24T16:36:40.513Z,1002.04
2022-10-24T16:37:40.531Z,1002.05
2022-10-24T16:38:40.519Z,1002.05
2022-10-24T16:39:40.519Z,1002.05
2022-10-24T16:41:40.538Z,1002.08